Istanbul, Turkey

6:11 PM EEST on August 22, 2014 (GMT +0300)
Ataturk | Change Station
CLOSE
Current Station
Airport
Location: Istanbul,
Elevation: 121 ft
Nearby Weather Stations

Elev 121 ft 40.98 °N, 28.81 °E | Updated 21 minutes ago

Clear
Clear
88 °F
Feels Like 91 °F
N
12
Wind Variable Wind from North

Today
High -- | Low -- °F
--% Chance of Precip.
Yesterday
High -- | Low -- °F
Precip. -- in
6:21 AM 7:53 PM
Waning Crescent, 8% visible
Pressure 29.95 in
Visibility -9999.0 miles
Clouds
Heat Index 91 °F
Dew Point 68 °F
Humidity 52%
Rainfall 0.00 in
Snow Depth Not available.
UV Not available.
Pollen Not available.
Air Quality Not available.
Flu Activity Not available.
METAR LTBA 221450Z 01010KT 320V090 CAVOK 31/20 Q1014 NOSIG RMK RWY17L 04010KT 010V070 RWY05 04010KT 010V070 RWY23 04010KT 010V070

More Conditions Fewer Conditions

Pressure 29.95 in
Visibility -9999.0 miles
Clouds
Heat Index 91 °F
Dew Point 68 °F
Humidity 52%
Rainfall 0.00 in
Snow Depth Not available.
UV Not available.
Pollen Not available.
Air Quality Not available.
Flu Activity Not available.
METAR LTBA 221450Z 01010KT 320V090 CAVOK 31/20 Q1014 NOSIG RMK RWY17L 04010KT 010V070 RWY05 04010KT 010V070 RWY23 04010KT 010V070

More Conditions Fewer Conditions

10-Day Weather Forecast

Almanac

Astronomy

Aug. 22, 2014 Rise Set
Actual Time 6:21 AM EEST 7:53 PM EEST
Civil Twilight 5:52 AM EEST 8:22 PM EEST
Nautical Twilight 5:17 AM EEST 8:57 PM EEST
Astronomical Twilight 4:40 AM EEST 9:33 PM EEST
Moon 3:25 AM EEST 5:49 PM EEST
Length of Visible Light 14h 29m
Length of Day
13h 32m
Tomorrow will be 2m 30s shorter.
Waning Crescent, 8% of the Moon is Illuminated
Today
Waning Crescent
Aug 25
New
Sep 2
First Quarter
Sep 8
Full
Sep 15
Last Quarter

Today's Extremes

Country Highs Country Lows

Community

WunderPhotos

Upload Photos

1,746,187 photos uploaded!

WunderBlogs® & News

Nearby

Snow Depth

Not available.

Earthquake Activity

City Distance Mag. Time & Date
No recent earthquake activity has been reported nearby.
Minimum magnitude displayed is 2.5.

Coastal Water Temperatures

Place Temperature
No Stations Reporting

Nearby Weather Stations